sensor_id;sensor_type;location;lat;lon;timestamp;P1;durP1;ratioP1;P2;durP2;ratioP2
19758;SDS011;10038;42.662;23.278;2022-09-20T00:01:25;2.97;;;2.13;;
19758;SDS011;10038;42.662;23.278;2022-09-20T00:03:54;1.83;;;1.63;;
19758;SDS011;10038;42.662;23.278;2022-09-20T00:06:24;2.90;;;1.90;;
19758;SDS011;10038;42.662;23.278;2022-09-20T00:08:52;1.90;;;1.70;;
19758;SDS011;10038;42.662;23.278;2022-09-20T00:11:21;1.93;;;1.63;;
19758;SDS011;10038;42.662;23.278;2022-09-20T00:13:50;2.27;;;1.90;;
19758;SDS011;10038;42.662;23.278;2022-09-20T00:16:21;1.63;;;1.50;;
19758;SDS011;10038;42.662;23.278;2022-09-20T00:18:50;2.00;;;1.80;;
19758;SDS011;10038;42.662;23.278;2022-09-20T00:21:18;2.57;;;1.90;;
19758;SDS011;10038;42.662;23.278;2022-09-20T00:23:47;2.07;;;1.60;;
19758;SDS011;10038;42.662;23.278;2022-09-20T00:26:14;3.10;;;2.10;;
19758;SDS011;10038;42.662;23.278;2022-09-20T00:28:41;2.60;;;1.90;;
19758;SDS011;10038;42.662;23.278;2022-09-20T00:31:08;1.90;;;1.70;;
19758;SDS011;10038;42.662;23.278;2022-09-20T00:33:36;2.10;;;1.73;;
19758;SDS011;10038;42.662;23.278;2022-09-20T00:36:20;2.10;;;1.50;;
19758;SDS011;10038;42.662;23.278;2022-09-20T00:38:48;3.63;;;1.80;;
19758;SDS011;10038;42.662;23.278;2022-09-20T00:41:20;2.00;;;1.50;;
19758;SDS011;10038;42.662;23.278;2022-09-20T00:43:46;2.60;;;1.57;;
19758;SDS011;10038;42.662;23.278;2022-09-20T00:46:16;2.03;;;1.53;;
19758;SDS011;10038;42.662;23.278;2022-09-20T00:48:48;1.57;;;1.40;;
19758;SDS011;10038;42.662;23.278;2022-09-20T00:51:16;1.73;;;1.43;;
19758;SDS011;10038;42.662;23.278;2022-09-20T00:53:50;1.67;;;1.40;;
19758;SDS011;10038;42.662;23.278;2022-09-20T00:56:19;1.53;;;1.40;;
19758;SDS011;10038;42.662;23.278;2022-09-20T00:58:51;2.37;;;1.50;;
19758;SDS011;10038;42.662;23.278;2022-09-20T01:01:24;1.40;;;1.27;;
19758;SDS011;10038;42.662;23.278;2022-09-20T01:03:51;1.73;;;1.63;;
19758;SDS011;10038;42.662;23.278;2022-09-20T01:06:19;1.60;;;1.43;;
19758;SDS011;10038;42.662;23.278;2022-09-20T01:08:46;1.90;;;1.30;;
19758;SDS011;10038;42.662;23.278;2022-09-20T01:11:17;1.80;;;1.47;;
19758;SDS011;10038;42.662;23.278;2022-09-20T01:13:44;1.90;;;1.63;;
19758;SDS011;10038;42.662;23.278;2022-09-20T01:16:11;1.43;;;1.33;;
19758;SDS011;10038;42.662;23.278;2022-09-20T01:18:41;1.73;;;1.37;;
19758;SDS011;10038;42.662;23.278;2022-09-20T01:21:10;2.83;;;1.67;;
19758;SDS011;10038;42.662;23.278;2022-09-20T01:23:41;1.83;;;1.60;;
19758;SDS011;10038;42.662;23.278;2022-09-20T01:26:28;1.70;;;1.57;;
19758;SDS011;10038;42.662;23.278;2022-09-20T01:29:21;1.60;;;1.50;;
19758;SDS011;10038;42.662;23.278;2022-09-20T01:31:58;2.47;;;1.80;;
19758;SDS011;10038;42.662;23.278;2022-09-20T01:34:28;2.33;;;1.90;;
19758;SDS011;10038;42.662;23.278;2022-09-20T01:37:00;2.53;;;1.70;;
19758;SDS011;10038;42.662;23.278;2022-09-20T01:39:34;1.90;;;1.70;;
19758;SDS011;10038;42.662;23.278;2022-09-20T01:42:11;1.67;;;1.57;;
19758;SDS011;10038;42.662;23.278;2022-09-20T01:44:43;1.80;;;1.63;;
19758;SDS011;10038;42.662;23.278;2022-09-20T01:47:21;2.17;;;1.97;;
19758;SDS011;10038;42.662;23.278;2022-09-20T01:50:00;2.00;;;1.60;;
19758;SDS011;10038;42.662;23.278;2022-09-20T01:52:47;1.67;;;1.40;;
19758;SDS011;10038;42.662;23.278;2022-09-20T01:55:56;2.70;;;2.23;;
19758;SDS011;10038;42.662;23.278;2022-09-20T02:01:39;2.90;;;1.90;;
19758;SDS011;10038;42.662;23.278;2022-09-20T02:04:33;1.93;;;1.70;;
19758;SDS011;10038;42.662;23.278;2022-09-20T02:07:24;2.20;;;1.90;;
19758;SDS011;10038;42.662;23.278;2022-09-20T02:10:15;2.47;;;2.00;;
19758;SDS011;10038;42.662;23.278;2022-09-20T02:12:59;2.03;;;1.83;;
19758;SDS011;10038;42.662;23.278;2022-09-20T02:15:33;1.80;;;1.70;;
19758;SDS011;10038;42.662;23.278;2022-09-20T02:18:24;2.40;;;2.20;;
19758;SDS011;10038;42.662;23.278;2022-09-20T02:21:04;2.20;;;2.00;;
19758;SDS011;10038;42.662;23.278;2022-09-20T02:23:41;1.93;;;1.73;;
19758;SDS011;10038;42.662;23.278;2022-09-20T02:26:21;2.30;;;2.10;;
19758;SDS011;10038;42.662;23.278;2022-09-20T02:29:00;2.20;;;1.80;;
19758;SDS011;10038;42.662;23.278;2022-09-20T02:34:45;2.13;;;1.93;;
19758;SDS011;10038;42.662;23.278;2022-09-20T02:37:48;2.80;;;1.90;;
19758;SDS011;10038;42.662;23.278;2022-09-20T02:40:38;2.30;;;2.07;;
19758;SDS011;10038;42.662;23.278;2022-09-20T02:43:24;2.23;;;1.67;;
19758;SDS011;10038;42.662;23.278;2022-09-20T02:45:56;2.50;;;1.90;;
19758;SDS011;10038;42.662;23.278;2022-09-20T02:48:29;2.70;;;2.10;;
19758;SDS011;10038;42.662;23.278;2022-09-20T02:51:05;2.13;;;1.80;;
19758;SDS011;10038;42.662;23.278;2022-09-20T02:53:42;2.70;;;2.50;;
19758;SDS011;10038;42.662;23.278;2022-09-20T02:56:16;4.10;;;2.47;;
19758;SDS011;10038;42.662;23.278;2022-09-20T02:58:51;3.07;;;2.27;;
19758;SDS011;10038;42.662;23.278;2022-09-20T03:01:30;3.20;;;2.90;;
19758;SDS011;10038;42.662;23.278;2022-09-20T03:04:09;2.10;;;1.90;;
19758;SDS011;10038;42.662;23.278;2022-09-20T03:06:48;4.63;;;2.00;;
19758;SDS011;10038;42.662;23.278;2022-09-20T03:09:22;3.27;;;2.30;;
19758;SDS011;10038;42.662;23.278;2022-09-20T03:11:59;2.60;;;2.40;;
19758;SDS011;10038;42.662;23.278;2022-09-20T03:14:36;2.47;;;2.23;;
19758;SDS011;10038;42.662;23.278;2022-09-20T03:17:11;2.57;;;2.20;;
19758;SDS011;10038;42.662;23.278;2022-09-20T03:19:50;2.07;;;1.77;;
19758;SDS011;10038;42.662;23.278;2022-09-20T03:22:35;2.47;;;2.17;;
19758;SDS011;10038;42.662;23.278;2022-09-20T03:25:14;2.70;;;1.87;;
19758;SDS011;10038;42.662;23.278;2022-09-20T03:28:04;2.70;;;1.87;;
19758;SDS011;10038;42.662;23.278;2022-09-20T03:30:52;1.90;;;1.77;;
19758;SDS011;10038;42.662;23.278;2022-09-20T03:33:28;4.03;;;2.20;;
19758;SDS011;10038;42.662;23.278;2022-09-20T03:36:11;2.33;;;2.13;;
19758;SDS011;10038;42.662;23.278;2022-09-20T03:39:05;2.50;;;1.70;;
19758;SDS011;10038;42.662;23.278;2022-09-20T03:41:48;3.90;;;2.00;;
19758;SDS011;10038;42.662;23.278;2022-09-20T03:47:42;2.57;;;1.90;;
19758;SDS011;10038;42.662;23.278;2022-09-20T03:50:22;3.20;;;2.10;;
19758;SDS011;10038;42.662;23.278;2022-09-20T03:53:10;2.40;;;2.00;;
19758;SDS011;10038;42.662;23.278;2022-09-20T03:55:59;2.80;;;1.60;;
19758;SDS011;10038;42.662;23.278;2022-09-20T03:58:42;2.37;;;1.83;;
19758;SDS011;10038;42.662;23.278;2022-09-20T04:01:28;2.57;;;1.43;;
19758;SDS011;10038;42.662;23.278;2022-09-20T04:04:05;2.57;;;1.90;;
19758;SDS011;10038;42.662;23.278;2022-09-20T04:06:48;2.30;;;1.70;;
19758;SDS011;10038;42.662;23.278;2022-09-20T04:09:33;4.70;;;1.93;;
19758;SDS011;10038;42.662;23.278;2022-09-20T04:12:09;3.03;;;1.80;;
19758;SDS011;10038;42.662;23.278;2022-09-20T04:14:46;2.07;;;1.87;;
19758;SDS011;10038;42.662;23.278;2022-09-20T04:17:21;6.90;;;1.73;;
19758;SDS011;10038;42.662;23.278;2022-09-20T04:19:57;3.03;;;2.00;;
19758;SDS011;10038;42.662;23.278;2022-09-20T04:22:29;2.30;;;1.70;;
19758;SDS011;10038;42.662;23.278;2022-09-20T04:24:59;2.70;;;1.97;;
19758;SDS011;10038;42.662;23.278;2022-09-20T04:27:32;2.80;;;2.43;;
19758;SDS011;10038;42.662;23.278;2022-09-20T04:30:05;4.03;;;2.33;;
19758;SDS011;10038;42.662;23.278;2022-09-20T04:32:43;3.07;;;2.20;;
19758;SDS011;10038;42.662;23.278;2022-09-20T04:35:22;2.50;;;2.07;;
19758;SDS011;10038;42.662;23.278;2022-09-20T04:38:16;2.13;;;1.70;;
19758;SDS011;10038;42.662;23.278;2022-09-20T04:40:52;1.67;;;1.47;;
19758;SDS011;10038;42.662;23.278;2022-09-20T04:52:57;2.00;;;1.80;;
19758;SDS011;10038;42.662;23.278;2022-09-20T04:55:49;1.80;;;1.70;;
19758;SDS011;10038;42.662;23.278;2022-09-20T04:58:30;1.87;;;1.60;;
19758;SDS011;10038;42.662;23.278;2022-09-20T05:04:19;2.30;;;1.90;;
19758;SDS011;10038;42.662;23.278;2022-09-20T05:07:22;2.17;;;1.97;;
19758;SDS011;10038;42.662;23.278;2022-09-20T05:13:09;2.30;;;1.87;;
19758;SDS011;10038;42.662;23.278;2022-09-20T05:15:47;4.50;;;1.90;;
19758;SDS011;10038;42.662;23.278;2022-09-20T05:21:25;2.73;;;1.87;;
19758;SDS011;10038;42.662;23.278;2022-09-20T05:24:10;3.00;;;1.80;;
19758;SDS011;10038;42.662;23.278;2022-09-20T05:26:50;2.80;;;2.50;;
19758;SDS011;10038;42.662;23.278;2022-09-20T05:29:24;4.90;;;1.70;;
19758;SDS011;10038;42.662;23.278;2022-09-20T05:31:58;2.57;;;1.97;;
19758;SDS011;10038;42.662;23.278;2022-09-20T05:34:32;2.63;;;2.20;;
19758;SDS011;10038;42.662;23.278;2022-09-20T05:37:09;2.10;;;1.90;;
19758;SDS011;10038;42.662;23.278;2022-09-20T05:39:58;2.33;;;1.70;;
19758;SDS011;10038;42.662;23.278;2022-09-20T05:42:33;2.40;;;1.93;;
19758;SDS011;10038;42.662;23.278;2022-09-20T05:45:15;2.13;;;1.63;;
19758;SDS011;10038;42.662;23.278;2022-09-20T05:47:52;1.60;;;1.50;;
19758;SDS011;10038;42.662;23.278;2022-09-20T05:50:28;2.00;;;1.50;;
19758;SDS011;10038;42.662;23.278;2022-09-20T05:53:16;1.97;;;1.47;;
19758;SDS011;10038;42.662;23.278;2022-09-20T05:56:06;2.50;;;1.80;;
19758;SDS011;10038;42.662;23.278;2022-09-20T05:58:49;1.93;;;1.63;;
19758;SDS011;10038;42.662;23.278;2022-09-20T06:01:24;5.60;;;1.70;;
19758;SDS011;10038;42.662;23.278;2022-09-20T06:03:57;2.13;;;1.60;;
19758;SDS011;10038;42.662;23.278;2022-09-20T06:06:37;1.70;;;1.23;;
19758;SDS011;10038;42.662;23.278;2022-09-20T06:09:19;2.73;;;1.50;;
19758;SDS011;10038;42.662;23.278;2022-09-20T06:12:13;1.70;;;1.60;;
19758;SDS011;10038;42.662;23.278;2022-09-20T06:14:49;1.83;;;1.27;;
19758;SDS011;10038;42.662;23.278;2022-09-20T06:17:26;2.00;;;1.43;;
19758;SDS011;10038;42.662;23.278;2022-09-20T06:20:07;1.50;;;1.40;;
19758;SDS011;10038;42.662;23.278;2022-09-20T06:22:42;1.80;;;1.50;;
19758;SDS011;10038;42.662;23.278;2022-09-20T06:25:14;1.33;;;1.20;;
19758;SDS011;10038;42.662;23.278;2022-09-20T06:27:48;1.50;;;1.27;;
19758;SDS011;10038;42.662;23.278;2022-09-20T06:30:19;1.73;;;1.40;;
19758;SDS011;10038;42.662;23.278;2022-09-20T06:32:54;1.70;;;1.50;;
19758;SDS011;10038;42.662;23.278;2022-09-20T06:35:23;1.53;;;1.20;;
19758;SDS011;10038;42.662;23.278;2022-09-20T06:37:57;2.90;;;1.30;;
19758;SDS011;10038;42.662;23.278;2022-09-20T06:40:56;2.03;;;1.00;;
19758;SDS011;10038;42.662;23.278;2022-09-20T06:43:42;1.70;;;1.20;;
19758;SDS011;10038;42.662;23.278;2022-09-20T06:46:08;2.90;;;1.20;;
19758;SDS011;10038;42.662;23.278;2022-09-20T06:48:37;1.20;;;0.93;;
19758;SDS011;10038;42.662;23.278;2022-09-20T06:51:04;1.33;;;1.10;;
19758;SDS011;10038;42.662;23.278;2022-09-20T06:53:32;1.60;;;1.07;;
19758;SDS011;10038;42.662;23.278;2022-09-20T06:59:46;1.30;;;0.90;;
19758;SDS011;10038;42.662;23.278;2022-09-20T07:02:13;1.37;;;1.00;;
19758;SDS011;10038;42.662;23.278;2022-09-20T07:04:40;1.60;;;1.00;;
19758;SDS011;10038;42.662;23.278;2022-09-20T07:07:11;2.10;;;1.13;;
19758;SDS011;10038;42.662;23.278;2022-09-20T07:09:42;1.57;;;1.07;;
19758;SDS011;10038;42.662;23.278;2022-09-20T07:12:08;2.60;;;1.10;;
19758;SDS011;10038;42.662;23.278;2022-09-20T07:14:36;1.27;;;0.90;;
19758;SDS011;10038;42.662;23.278;2022-09-20T07:17:04;1.10;;;0.90;;
19758;SDS011;10038;42.662;23.278;2022-09-20T07:19:31;1.17;;;0.90;;
19758;SDS011;10038;42.662;23.278;2022-09-20T07:21:58;1.10;;;1.00;;
19758;SDS011;10038;42.662;23.278;2022-09-20T07:24:25;2.37;;;1.73;;
19758;SDS011;10038;42.662;23.278;2022-09-20T07:26:54;2.23;;;1.43;;
19758;SDS011;10038;42.662;23.278;2022-09-20T07:29:21;2.00;;;1.10;;
19758;SDS011;10038;42.662;23.278;2022-09-20T07:31:48;1.27;;;1.17;;
19758;SDS011;10038;42.662;23.278;2022-09-20T07:34:16;1.40;;;1.00;;
19758;SDS011;10038;42.662;23.278;2022-09-20T07:36:44;1.33;;;1.10;;
19758;SDS011;10038;42.662;23.278;2022-09-20T07:39:11;1.30;;;1.10;;
19758;SDS011;10038;42.662;23.278;2022-09-20T07:41:38;1.10;;;0.90;;
19758;SDS011;10038;42.662;23.278;2022-09-20T07:44:05;1.17;;;1.07;;
19758;SDS011;10038;42.662;23.278;2022-09-20T07:46:46;1.20;;;0.97;;
19758;SDS011;10038;42.662;23.278;2022-09-20T07:49:13;1.40;;;1.10;;
19758;SDS011;10038;42.662;23.278;2022-09-20T07:51:41;6.03;;;1.00;;
19758;SDS011;10038;42.662;23.278;2022-09-20T07:54:08;1.23;;;1.13;;
19758;SDS011;10038;42.662;23.278;2022-09-20T07:56:35;1.20;;;1.10;;
19758;SDS011;10038;42.662;23.278;2022-09-20T07:59:01;1.23;;;1.10;;
19758;SDS011;10038;42.662;23.278;2022-09-20T08:01:28;1.20;;;1.10;;
19758;SDS011;10038;42.662;23.278;2022-09-20T08:03:55;1.20;;;1.00;;
19758;SDS011;10038;42.662;23.278;2022-09-20T08:06:22;1.20;;;0.90;;
19758;SDS011;10038;42.662;23.278;2022-09-20T08:08:52;1.10;;;0.80;;
19758;SDS011;10038;42.662;23.278;2022-09-20T08:11:19;1.00;;;0.80;;
19758;SDS011;10038;42.662;23.278;2022-09-20T08:13:50;1.10;;;0.90;;
19758;SDS011;10038;42.662;23.278;2022-09-20T08:16:17;0.90;;;0.80;;
19758;SDS011;10038;42.662;23.278;2022-09-20T08:18:45;1.30;;;0.90;;
19758;SDS011;10038;42.662;23.278;2022-09-20T08:21:13;1.10;;;0.97;;
19758;SDS011;10038;42.662;23.278;2022-09-20T08:23:41;1.80;;;1.33;;
19758;SDS011;10038;42.662;23.278;2022-09-20T08:26:11;1.27;;;1.00;;
19758;SDS011;10038;42.662;23.278;2022-09-20T08:28:39;1.30;;;1.20;;
19758;SDS011;10038;42.662;23.278;2022-09-20T08:31:09;1.30;;;1.10;;
19758;SDS011;10038;42.662;23.278;2022-09-20T08:33:37;1.20;;;0.90;;
19758;SDS011;10038;42.662;23.278;2022-09-20T08:36:05;1.20;;;1.07;;
19758;SDS011;10038;42.662;23.278;2022-09-20T08:38:33;2.13;;;1.20;;
19758;SDS011;10038;42.662;23.278;2022-09-20T08:41:01;1.40;;;1.00;;
19758;SDS011;10038;42.662;23.278;2022-09-20T08:43:34;1.40;;;1.10;;
19758;SDS011;10038;42.662;23.278;2022-09-20T08:46:04;1.00;;;0.90;;
19758;SDS011;10038;42.662;23.278;2022-09-20T08:48:35;1.10;;;0.90;;
19758;SDS011;10038;42.662;23.278;2022-09-20T08:51:02;1.10;;;1.00;;
19758;SDS011;10038;42.662;23.278;2022-09-20T08:53:30;1.60;;;1.10;;
19758;SDS011;10038;42.662;23.278;2022-09-20T08:55:59;1.47;;;1.00;;
19758;SDS011;10038;42.662;23.278;2022-09-20T08:58:28;1.57;;;0.80;;
19758;SDS011;10038;42.662;23.278;2022-09-20T09:00:57;1.10;;;0.90;;
19758;SDS011;10038;42.662;23.278;2022-09-20T09:03:24;1.40;;;1.00;;
19758;SDS011;10038;42.662;23.278;2022-09-20T09:05:52;1.70;;;1.10;;
19758;SDS011;10038;42.662;23.278;2022-09-20T09:08:21;1.37;;;1.00;;
19758;SDS011;10038;42.662;23.278;2022-09-20T09:10:52;1.20;;;1.00;;
19758;SDS011;10038;42.662;23.278;2022-09-20T09:13:23;2.80;;;1.07;;
19758;SDS011;10038;42.662;23.278;2022-09-20T09:15:53;1.33;;;1.10;;
19758;SDS011;10038;42.662;23.278;2022-09-20T09:18:26;2.40;;;1.10;;
19758;SDS011;10038;42.662;23.278;2022-09-20T09:20:58;1.10;;;0.90;;
19758;SDS011;10038;42.662;23.278;2022-09-20T09:23:28;2.40;;;1.10;;
19758;SDS011;10038;42.662;23.278;2022-09-20T09:26:00;1.30;;;1.00;;
19758;SDS011;10038;42.662;23.278;2022-09-20T09:28:29;1.17;;;1.00;;
19758;SDS011;10038;42.662;23.278;2022-09-20T09:31:10;1.10;;;1.00;;
19758;SDS011;10038;42.662;23.278;2022-09-20T09:33:43;1.17;;;1.07;;
19758;SDS011;10038;42.662;23.278;2022-09-20T09:36:12;1.67;;;1.10;;
19758;SDS011;10038;42.662;23.278;2022-09-20T09:38:41;1.93;;;1.00;;
19758;SDS011;10038;42.662;23.278;2022-09-20T09:41:19;1.43;;;0.83;;
19758;SDS011;10038;42.662;23.278;2022-09-20T09:43:56;1.00;;;0.80;;
19758;SDS011;10038;42.662;23.278;2022-09-20T09:46:24;0.90;;;0.80;;
19758;SDS011;10038;42.662;23.278;2022-09-20T09:49:04;1.10;;;0.87;;
19758;SDS011;10038;42.662;23.278;2022-09-20T09:51:33;1.20;;;0.90;;
19758;SDS011;10038;42.662;23.278;2022-09-20T09:54:00;1.30;;;1.10;;
19758;SDS011;10038;42.662;23.278;2022-09-20T09:56:31;1.37;;;0.90;;
19758;SDS011;10038;42.662;23.278;2022-09-20T09:59:12;3.70;;;0.93;;
19758;SDS011;10038;42.662;23.278;2022-09-20T10:01:51;3.00;;;0.83;;
19758;SDS011;10038;42.662;23.278;2022-09-20T10:04:26;1.10;;;0.90;;
19758;SDS011;10038;42.662;23.278;2022-09-20T10:07:01;2.80;;;1.10;;
19758;SDS011;10038;42.662;23.278;2022-09-20T10:09:48;1.13;;;0.80;;
19758;SDS011;10038;42.662;23.278;2022-09-20T10:12:30;1.10;;;0.80;;
19758;SDS011;10038;42.662;23.278;2022-09-20T10:15:12;2.43;;;1.00;;
19758;SDS011;10038;42.662;23.278;2022-09-20T10:17:50;1.20;;;0.90;;
19758;SDS011;10038;42.662;23.278;2022-09-20T10:20:33;1.10;;;0.90;;
19758;SDS011;10038;42.662;23.278;2022-09-20T10:23:17;1.00;;;0.80;;
19758;SDS011;10038;42.662;23.278;2022-09-20T10:26:02;3.20;;;1.10;;
19758;SDS011;10038;42.662;23.278;2022-09-20T10:28:40;1.10;;;0.90;;
19758;SDS011;10038;42.662;23.278;2022-09-20T10:31:19;1.30;;;1.20;;
19758;SDS011;10038;42.662;23.278;2022-09-20T10:34:05;1.40;;;1.30;;
19758;SDS011;10038;42.662;23.278;2022-09-20T10:36:47;1.40;;;1.30;;
19758;SDS011;10038;42.662;23.278;2022-09-20T10:39:17;1.60;;;1.33;;
19758;SDS011;10038;42.662;23.278;2022-09-20T10:41:52;1.30;;;1.20;;
19758;SDS011;10038;42.662;23.278;2022-09-20T10:44:54;1.40;;;1.30;;
19758;SDS011;10038;42.662;23.278;2022-09-20T10:47:30;1.50;;;1.37;;
19758;SDS011;10038;42.662;23.278;2022-09-20T10:50:01;1.60;;;1.20;;
19758;SDS011;10038;42.662;23.278;2022-09-20T10:52:44;1.37;;;1.10;;
19758;SDS011;10038;42.662;23.278;2022-09-20T10:55:32;2.63;;;1.33;;
19758;SDS011;10038;42.662;23.278;2022-09-20T10:58:28;1.70;;;1.40;;
19758;SDS011;10038;42.662;23.278;2022-09-20T11:01:20;1.40;;;1.30;;
19758;SDS011;10038;42.662;23.278;2022-09-20T11:04:08;1.37;;;1.27;;
19758;SDS011;10038;42.662;23.278;2022-09-20T11:07:05;2.97;;;1.30;;
19758;SDS011;10038;42.662;23.278;2022-09-20T11:09:39;1.30;;;1.20;;
19758;SDS011;10038;42.662;23.278;2022-09-20T11:12:11;1.30;;;1.20;;
19758;SDS011;10038;42.662;23.278;2022-09-20T11:14:43;1.40;;;1.27;;
19758;SDS011;10038;42.662;23.278;2022-09-20T11:17:16;1.40;;;1.30;;
19758;SDS011;10038;42.662;23.278;2022-09-20T11:19:49;1.27;;;1.17;;
19758;SDS011;10038;42.662;23.278;2022-09-20T11:22:22;1.47;;;1.00;;
19758;SDS011;10038;42.662;23.278;2022-09-20T11:24:56;1.23;;;1.13;;
19758;SDS011;10038;42.662;23.278;2022-09-20T11:27:31;1.30;;;1.20;;
19758;SDS011;10038;42.662;23.278;2022-09-20T11:30:13;1.20;;;1.10;;
19758;SDS011;10038;42.662;23.278;2022-09-20T11:32:42;1.57;;;1.13;;
19758;SDS011;10038;42.662;23.278;2022-09-20T11:35:19;1.20;;;1.10;;
19758;SDS011;10038;42.662;23.278;2022-09-20T11:37:51;1.60;;;1.20;;
19758;SDS011;10038;42.662;23.278;2022-09-20T11:40:25;1.20;;;1.10;;
19758;SDS011;10038;42.662;23.278;2022-09-20T11:42:56;1.40;;;1.03;;
19758;SDS011;10038;42.662;23.278;2022-09-20T11:45:26;1.43;;;1.10;;
19758;SDS011;10038;42.662;23.278;2022-09-20T11:47:55;3.53;;;1.20;;
19758;SDS011;10038;42.662;23.278;2022-09-20T11:53:34;1.00;;;0.80;;
19758;SDS011;10038;42.662;23.278;2022-09-20T11:56:18;1.10;;;1.00;;
19758;SDS011;10038;42.662;23.278;2022-09-20T11:58:48;1.50;;;1.00;;
19758;SDS011;10038;42.662;23.278;2022-09-20T12:01:24;1.00;;;0.87;;
19758;SDS011;10038;42.662;23.278;2022-09-20T12:03:54;1.30;;;1.00;;
19758;SDS011;10038;42.662;23.278;2022-09-20T12:06:24;1.00;;;0.90;;
19758;SDS011;10038;42.662;23.278;2022-09-20T12:08:57;1.37;;;0.90;;
19758;SDS011;10038;42.662;23.278;2022-09-20T12:11:28;1.00;;;0.83;;
19758;SDS011;10038;42.662;23.278;2022-09-20T12:14:00;2.07;;;1.00;;
19758;SDS011;10038;42.662;23.278;2022-09-20T12:16:37;1.43;;;1.10;;
19758;SDS011;10038;42.662;23.278;2022-09-20T12:19:07;1.30;;;1.07;;
19758;SDS011;10038;42.662;23.278;2022-09-20T12:24:40;1.30;;;0.90;;
19758;SDS011;10038;42.662;23.278;2022-09-20T12:27:21;1.10;;;1.00;;
19758;SDS011;10038;42.662;23.278;2022-09-20T12:30:16;1.10;;;0.93;;
19758;SDS011;10038;42.662;23.278;2022-09-20T12:32:45;1.00;;;0.80;;
19758;SDS011;10038;42.662;23.278;2022-09-20T12:38:38;1.20;;;0.90;;
19758;SDS011;10038;42.662;23.278;2022-09-20T12:41:13;1.13;;;0.90;;
19758;SDS011;10038;42.662;23.278;2022-09-20T12:44:00;0.90;;;0.80;;
19758;SDS011;10038;42.662;23.278;2022-09-20T12:46:38;1.20;;;1.00;;
19758;SDS011;10038;42.662;23.278;2022-09-20T12:52:37;1.13;;;0.93;;
19758;SDS011;10038;42.662;23.278;2022-09-20T12:55:25;1.13;;;1.00;;
19758;SDS011;10038;42.662;23.278;2022-09-20T12:58:05;2.07;;;1.10;;
19758;SDS011;10038;42.662;23.278;2022-09-20T13:00:45;1.10;;;1.00;;
19758;SDS011;10038;42.662;23.278;2022-09-20T13:03:24;1.10;;;1.00;;
19758;SDS011;10038;42.662;23.278;2022-09-20T13:08:51;1.30;;;1.20;;
19758;SDS011;10038;42.662;23.278;2022-09-20T13:11:22;1.20;;;1.10;;
19758;SDS011;10038;42.662;23.278;2022-09-20T13:13:54;1.67;;;1.10;;
19758;SDS011;10038;42.662;23.278;2022-09-20T13:16:25;2.23;;;1.10;;
19758;SDS011;10038;42.662;23.278;2022-09-20T13:18:56;1.60;;;1.50;;
19758;SDS011;10038;42.662;23.278;2022-09-20T13:21:29;1.40;;;1.13;;
19758;SDS011;10038;42.662;23.278;2022-09-20T13:23:57;1.70;;;1.30;;
19758;SDS011;10038;42.662;23.278;2022-09-20T13:26:27;1.00;;;0.90;;
19758;SDS011;10038;42.662;23.278;2022-09-20T13:28:58;1.23;;;1.13;;
19758;SDS011;10038;42.662;23.278;2022-09-20T13:31:30;1.47;;;1.10;;
19758;SDS011;10038;42.662;23.278;2022-09-20T13:36:45;1.17;;;0.90;;
19758;SDS011;10038;42.662;23.278;2022-09-20T13:39:24;1.00;;;0.90;;
19758;SDS011;10038;42.662;23.278;2022-09-20T13:41:57;1.10;;;1.00;;
19758;SDS011;10038;42.662;23.278;2022-09-20T13:44:26;1.63;;;1.00;;
19758;SDS011;10038;42.662;23.278;2022-09-20T13:46:59;1.80;;;1.00;;
19758;SDS011;10038;42.662;23.278;2022-09-20T13:49:30;2.17;;;1.30;;
19758;SDS011;10038;42.662;23.278;2022-09-20T13:51:57;1.20;;;1.00;;
19758;SDS011;10038;42.662;23.278;2022-09-20T13:54:25;3.43;;;0.90;;
19758;SDS011;10038;42.662;23.278;2022-09-20T13:56:54;1.10;;;0.80;;
19758;SDS011;10038;42.662;23.278;2022-09-20T13:59:23;1.10;;;0.93;;
19758;SDS011;10038;42.662;23.278;2022-09-20T14:01:51;1.10;;;1.00;;
19758;SDS011;10038;42.662;23.278;2022-09-20T14:04:22;1.80;;;1.03;;
19758;SDS011;10038;42.662;23.278;2022-09-20T14:06:51;1.10;;;1.00;;
19758;SDS011;10038;42.662;23.278;2022-09-20T14:09:22;1.00;;;0.73;;
19758;SDS011;10038;42.662;23.278;2022-09-20T14:11:53;1.00;;;0.80;;
19758;SDS011;10038;42.662;23.278;2022-09-20T14:14:22;1.10;;;0.90;;
19758;SDS011;10038;42.662;23.278;2022-09-20T14:16:49;1.30;;;0.90;;
19758;SDS011;10038;42.662;23.278;2022-09-20T14:19:19;1.50;;;0.87;;
19758;SDS011;10038;42.662;23.278;2022-09-20T14:21:50;1.07;;;0.80;;
19758;SDS011;10038;42.662;23.278;2022-09-20T14:24:25;1.40;;;0.97;;
19758;SDS011;10038;42.662;23.278;2022-09-20T14:27:00;2.73;;;1.10;;
19758;SDS011;10038;42.662;23.278;2022-09-20T14:29:33;2.13;;;1.00;;
19758;SDS011;10038;42.662;23.278;2022-09-20T14:32:04;1.30;;;0.90;;
19758;SDS011;10038;42.662;23.278;2022-09-20T14:34:37;1.63;;;1.13;;
19758;SDS011;10038;42.662;23.278;2022-09-20T14:37:06;1.20;;;1.00;;
19758;SDS011;10038;42.662;23.278;2022-09-20T14:39:42;1.93;;;1.23;;
19758;SDS011;10038;42.662;23.278;2022-09-20T14:42:19;1.30;;;1.10;;
19758;SDS011;10038;42.662;23.278;2022-09-20T14:44:50;1.30;;;1.10;;
19758;SDS011;10038;42.662;23.278;2022-09-20T14:47:23;1.80;;;1.17;;
19758;SDS011;10038;42.662;23.278;2022-09-20T14:49:54;0.90;;;0.70;;
19758;SDS011;10038;42.662;23.278;2022-09-20T14:52:35;1.30;;;1.00;;
19758;SDS011;10038;42.662;23.278;2022-09-20T14:57:56;1.10;;;1.00;;
19758;SDS011;10038;42.662;23.278;2022-09-20T15:00:25;1.47;;;1.20;;
19758;SDS011;10038;42.662;23.278;2022-09-20T15:02:53;1.33;;;1.00;;
19758;SDS011;10038;42.662;23.278;2022-09-20T15:05:29;1.10;;;0.90;;
19758;SDS011;10038;42.662;23.278;2022-09-20T15:07:56;1.17;;;1.00;;
19758;SDS011;10038;42.662;23.278;2022-09-20T15:10:23;1.20;;;1.00;;
19758;SDS011;10038;42.662;23.278;2022-09-20T15:12:50;1.60;;;1.00;;
19758;SDS011;10038;42.662;23.278;2022-09-20T15:15:17;1.20;;;1.03;;
19758;SDS011;10038;42.662;23.278;2022-09-20T15:17:44;1.20;;;1.10;;
19758;SDS011;10038;42.662;23.278;2022-09-20T15:20:13;1.30;;;1.20;;
19758;SDS011;10038;42.662;23.278;2022-09-20T15:22:43;2.40;;;2.20;;
19758;SDS011;10038;42.662;23.278;2022-09-20T15:25:13;1.37;;;1.20;;
19758;SDS011;10038;42.662;23.278;2022-09-20T15:27:42;2.10;;;1.20;;
19758;SDS011;10038;42.662;23.278;2022-09-20T15:30:11;1.27;;;1.10;;
19758;SDS011;10038;42.662;23.278;2022-09-20T15:32:39;2.37;;;1.20;;
19758;SDS011;10038;42.662;23.278;2022-09-20T15:35:06;2.13;;;1.20;;
19758;SDS011;10038;42.662;23.278;2022-09-20T15:37:33;1.80;;;1.43;;
19758;SDS011;10038;42.662;23.278;2022-09-20T15:40:02;1.50;;;1.40;;
19758;SDS011;10038;42.662;23.278;2022-09-20T15:42:29;2.90;;;1.30;;
19758;SDS011;10038;42.662;23.278;2022-09-20T15:44:56;1.93;;;1.47;;
19758;SDS011;10038;42.662;23.278;2022-09-20T15:47:23;1.40;;;1.10;;
19758;SDS011;10038;42.662;23.278;2022-09-20T15:49:52;1.40;;;1.20;;
19758;SDS011;10038;42.662;23.278;2022-09-20T15:52:19;1.83;;;1.50;;
19758;SDS011;10038;42.662;23.278;2022-09-20T15:54:49;2.33;;;1.40;;
19758;SDS011;10038;42.662;23.278;2022-09-20T15:57:18;2.97;;;1.40;;
19758;SDS011;10038;42.662;23.278;2022-09-20T15:59:45;2.40;;;1.47;;
19758;SDS011;10038;42.662;23.278;2022-09-20T16:02:11;3.30;;;2.47;;
19758;SDS011;10038;42.662;23.278;2022-09-20T16:04:38;1.90;;;1.70;;
19758;SDS011;10038;42.662;23.278;2022-09-20T16:07:05;4.10;;;3.30;;
19758;SDS011;10038;42.662;23.278;2022-09-20T16:09:33;2.63;;;2.03;;